Time;durP1;ratioP1;P1;durP2;ratioP2;P2;SDS_P1;SDS_P2;PMS_P1;PMS_P2;Temp;Humidity;BMP_temperature;BMP_pressure;BME280_temperature;BME280_humidity;BME280_pressure;Samples;Min_cycle;Max_cycle;Signal;HPM_P1;HPM_P2
2023/07/09 00:00:29;;;;;;;57.10;2.20;;;;;;;;;;5033083;28;20777;-68
2023/07/09 00:02:57;;;;;;;56.80;2.10;;;;;;;;;;5032841;28;20453;-68
2023/07/09 00:05:25;;;;;;;57.30;2.70;;;;;;;;;;5032379;28;20988;-68
2023/07/09 00:07:52;;;;;;;57.40;2.50;;;;;;;;;;5032755;28;20488;-68
2023/07/09 00:10:20;;;;;;;56.57;2.00;;;;;;;;;;5032858;28;20869;-68
2023/07/09 00:12:47;;;;;;;57.70;2.87;;;;;;;;;;5032880;28;20825;-68
2023/07/09 00:15:15;;;;;;;64.43;3.73;;;;;;;;;;5032134;28;20481;-68
2023/07/09 00:17:44;;;;;;;57.47;2.77;;;;;;;;;;5032387;28;20981;-68
2023/07/09 00:20:13;;;;;;;56.77;2.60;;;;;;;;;;5032498;28;20459;-68
2023/07/09 00:22:41;;;;;;;56.53;2.20;;;;;;;;;;5032580;28;20694;-68
2023/07/09 00:25:13;;;;;;;57.00;2.60;;;;;;;;;;5032500;28;20471;-68
2023/07/09 00:27:44;;;;;;;57.50;2.30;;;;;;;;;;5032299;28;20857;-68
2023/07/09 00:30:16;;;;;;;57.50;2.60;;;;;;;;;;5032519;28;20957;-68
2023/07/09 00:32:44;;;;;;;56.73;2.03;;;;;;;;;;5032390;28;20456;-68
2023/07/09 00:35:15;;;;;;;56.67;2.00;;;;;;;;;;5032025;28;20491;-68
2023/07/09 00:37:42;;;;;;;58.00;2.83;;;;;;;;;;5032488;28;20559;-68
2023/07/09 00:40:12;;;;;;;56.87;2.10;;;;;;;;;;5032126;28;20457;-68
2023/07/09 00:42:39;;;;;;;56.87;2.57;;;;;;;;;;5031923;28;20451;-68
2023/07/09 00:45:18;;;;;;;56.97;2.33;;;;;;;;;;5031960;28;20811;-68
2023/07/09 00:47:49;;;;;;;57.67;2.63;;;;;;;;;;5032134;28;20588;-68
2023/07/09 00:50:30;;;;;;;57.13;2.30;;;;;;;;;;5031982;28;20511;-68
2023/07/09 00:53:02;;;;;;;57.30;2.37;;;;;;;;;;5031873;28;20452;-68
2023/07/09 00:55:33;;;;;;;57.07;2.43;;;;;;;;;;5031542;28;20481;-68
2023/07/09 00:58:02;;;;;;;56.37;2.20;;;;;;;;;;5031945;28;20477;-68
2023/07/09 01:00:42;;;;;;;57.30;2.50;;;;;;;;;;5031783;28;20673;-68
2023/07/09 01:03:11;;;;;;;56.90;2.30;;;;;;;;;;5031371;28;20559;-68
2023/07/09 01:05:38;;;;;;;56.83;2.10;;;;;;;;;;5031354;28;20446;-68
2023/07/09 01:08:09;;;;;;;57.07;2.47;;;;;;;;;;5031671;28;20516;-68
2023/07/09 01:10:37;;;;;;;57.67;2.40;;;;;;;;;;5031557;28;21008;-68
2023/07/09 01:13:09;;;;;;;57.10;2.23;;;;;;;;;;5031964;28;20441;-68
2023/07/09 01:15:37;;;;;;;56.90;2.37;;;;;;;;;;5029874;28;20485;-68
2023/07/09 01:18:04;;;;;;;56.73;1.90;;;;;;;;;;5031655;28;20926;-68
2023/07/09 01:20:33;;;;;;;57.03;2.23;;;;;;;;;;5031505;28;20456;-68
2023/07/09 01:23:01;;;;;;;56.97;2.23;;;;;;;;;;5031600;28;20457;-68
2023/07/09 01:25:29;;;;;;;57.40;2.40;;;;;;;;;;5031421;28;20445;-68
2023/07/09 01:27:56;;;;;;;57.37;2.97;;;;;;;;;;5031293;28;20566;-68
2023/07/09 01:30:24;;;;;;;56.90;2.73;;;;;;;;;;5031413;28;20457;-68
2023/07/09 01:32:52;;;;;;;57.60;2.70;;;;;;;;;;5031462;28;20453;-68
2023/07/09 01:35:21;;;;;;;57.20;2.97;;;;;;;;;;5031038;28;20495;-68
2023/07/09 01:37:49;;;;;;;56.67;2.30;;;;;;;;;;5031189;28;20472;-67
2023/07/09 01:40:19;;;;;;;57.30;2.80;;;;;;;;;;5031085;28;20453;-67
2023/07/09 01:42:46;;;;;;;56.67;2.00;;;;;;;;;;5031662;28;20452;-67
2023/07/09 01:45:13;;;;;;;57.33;2.70;;;;;;;;;;5030697;28;20817;-67
2023/07/09 01:47:40;;;;;;;57.93;2.97;;;;;;;;;;5031100;28;20822;-68
2023/07/09 01:50:09;;;;;;;58.27;3.10;;;;;;;;;;5031194;28;20450;-67
2023/07/09 01:52:37;;;;;;;56.73;2.17;;;;;;;;;;5031027;28;20460;-68
2023/07/09 01:55:05;;;;;;;56.97;2.10;;;;;;;;;;5030717;28;20488;-67
2023/07/09 01:57:33;;;;;;;57.07;2.63;;;;;;;;;;5030941;28;20465;-67
2023/07/09 02:00:01;;;;;;;57.27;2.93;;;;;;;;;;5031215;28;20457;-67
2023/07/09 02:02:29;;;;;;;57.10;2.87;;;;;;;;;;5031104;28;20896;-68
2023/07/09 02:04:57;;;;;;;57.77;2.20;;;;;;;;;;5030848;28;20441;-67
2023/07/09 02:07:24;;;;;;;57.60;2.83;;;;;;;;;;5030693;28;20492;-68
2023/07/09 02:09:51;;;;;;;56.80;2.00;;;;;;;;;;5030654;28;20461;-67
2023/07/09 02:12:19;;;;;;;56.77;1.87;;;;;;;;;;5031134;28;20472;-67
2023/07/09 02:14:48;;;;;;;57.10;2.33;;;;;;;;;;5031925;28;20488;-67
2023/07/09 02:17:16;;;;;;;56.67;2.37;;;;;;;;;;5034476;28;20469;-67
2023/07/09 02:19:43;;;;;;;57.20;2.30;;;;;;;;;;5034791;28;20503;-67
2023/07/09 02:22:11;;;;;;;57.17;2.97;;;;;;;;;;5034561;28;20449;-68
2023/07/09 02:24:38;;;;;;;56.97;2.20;;;;;;;;;;5035004;28;20445;-68
2023/07/09 02:27:06;;;;;;;56.60;2.43;;;;;;;;;;5034357;28;20488;-67
2023/07/09 02:29:34;;;;;;;56.67;2.20;;;;;;;;;;5034912;28;20532;-68
2023/07/09 02:32:03;;;;;;;57.00;2.27;;;;;;;;;;5034620;28;20449;-67
2023/07/09 02:34:31;;;;;;;56.90;2.30;;;;;;;;;;5034362;28;20485;-68
2023/07/09 02:36:59;;;;;;;56.77;2.33;;;;;;;;;;5034269;28;20501;-67
2023/07/09 02:39:27;;;;;;;57.17;2.70;;;;;;;;;;5034395;28;20457;-67
2023/07/09 02:41:54;;;;;;;56.93;2.30;;;;;;;;;;5034606;28;20826;-67
2023/07/09 02:44:21;;;;;;;57.00;2.43;;;;;;;;;;5034437;28;20456;-67
2023/07/09 02:46:48;;;;;;;57.30;2.57;;;;;;;;;;5033891;28;20471;-68
2023/07/09 02:49:17;;;;;;;56.93;2.13;;;;;;;;;;5034220;28;20828;-67
2023/07/09 02:51:44;;;;;;;56.90;2.37;;;;;;;;;;5034331;28;20449;-67
2023/07/09 02:54:11;;;;;;;56.90;2.40;;;;;;;;;;5034062;28;20457;-67
2023/07/09 02:56:38;;;;;;;57.80;2.73;;;;;;;;;;5033616;28;20493;-67
2023/07/09 02:59:06;;;;;;;57.60;2.50;;;;;;;;;;5034205;28;20445;-68
2023/07/09 03:01:35;;;;;;;57.50;2.80;;;;;;;;;;5033866;28;20832;-68
2023/07/09 03:04:03;;;;;;;56.87;2.23;;;;;;;;;;5034156;28;20543;-67
2023/07/09 03:06:33;;;;;;;57.50;3.23;;;;;;;;;;5033632;28;20472;-67
2023/07/09 03:09:03;;;;;;;57.70;2.63;;;;;;;;;;5033941;28;20531;-68
2023/07/09 03:11:31;;;;;;;56.90;2.20;;;;;;;;;;5033780;28;20464;-68
2023/07/09 03:13:58;;;;;;;56.87;2.30;;;;;;;;;;5033809;28;20460;-68
2023/07/09 03:16:27;;;;;;;57.77;2.60;;;;;;;;;;5033310;28;21001;-68
2023/07/09 03:18:55;;;;;;;56.77;2.13;;;;;;;;;;5033890;28;20445;-68
2023/07/09 03:21:22;;;;;;;56.87;2.40;;;;;;;;;;5033538;28;21015;-68
2023/07/09 03:23:50;;;;;;;57.17;2.50;;;;;;;;;;5033763;28;20459;-68
2023/07/09 03:26:17;;;;;;;57.10;2.40;;;;;;;;;;5032847;28;20448;-68
2023/07/09 03:28:44;;;;;;;57.50;2.73;;;;;;;;;;5033404;28;20455;-68
2023/07/09 03:31:11;;;;;;;57.50;2.83;;;;;;;;;;5033644;28;20453;-68
2023/07/09 03:33:39;;;;;;;56.87;2.30;;;;;;;;;;5033617;28;20832;-68
2023/07/09 03:36:06;;;;;;;56.67;2.20;;;;;;;;;;5033245;28;20485;-68
2023/07/09 03:38:34;;;;;;;56.63;2.33;;;;;;;;;;5033454;28;20453;-68
2023/07/09 03:41:02;;;;;;;57.10;2.40;;;;;;;;;;5029472;28;20983;-68
2023/07/09 03:43:29;;;;;;;56.80;1.97;;;;;;;;;;5032932;28;20456;-68
2023/07/09 03:45:56;;;;;;;56.87;2.23;;;;;;;;;;5032850;28;20451;-68
2023/07/09 03:48:23;;;;;;;56.80;1.97;;;;;;;;;;5033020;28;20469;-68
2023/07/09 03:50:50;;;;;;;56.87;2.23;;;;;;;;;;5033267;28;20449;-68
2023/07/09 03:53:18;;;;;;;56.97;2.30;;;;;;;;;;5033016;28;20454;-68
2023/07/09 03:55:47;;;;;;;56.77;2.10;;;;;;;;;;5032494;28;20485;-68
2023/07/09 03:58:15;;;;;;;56.97;2.17;;;;;;;;;;5032359;28;20472;-68
2023/07/09 04:00:43;;;;;;;57.07;2.97;;;;;;;;;;5030350;28;20456;-68
2023/07/09 04:03:10;;;;;;;56.87;2.30;;;;;;;;;;5032939;28;20456;-68
2023/07/09 04:05:37;;;;;;;57.30;2.67;;;;;;;;;;5032491;28;20550;-68
2023/07/09 04:08:04;;;;;;;56.73;2.10;;;;;;;;;;5032570;28;20477;-68
2023/07/09 04:10:32;;;;;;;57.47;2.60;;;;;;;;;;5032623;28;20480;-68
2023/07/09 04:12:59;;;;;;;56.97;2.30;;;;;;;;;;5032710;28;20460;-68
2023/07/09 04:15:27;;;;;;;56.97;2.03;;;;;;;;;;5032315;28;20489;-68
2023/07/09 04:17:54;;;;;;;57.00;2.10;;;;;;;;;;5032430;28;20989;-68
2023/07/09 04:20:22;;;;;;;57.77;2.40;;;;;;;;;;5032568;28;20445;-68
2023/07/09 04:22:49;;;;;;;56.93;2.17;;;;;;;;;;5032587;28;20453;-68
2023/07/09 04:25:16;;;;;;;57.30;2.00;;;;;;;;;;5032291;28;20453;-68
2023/07/09 04:27:44;;;;;;;56.87;2.30;;;;;;;;;;5032480;28;20473;-68
2023/07/09 04:30:12;;;;;;;56.87;2.10;;;;;;;;;;5032719;28;20450;-68
2023/07/09 04:32:41;;;;;;;57.00;2.10;;;;;;;;;;5032367;28;20449;-68
2023/07/09 04:35:08;;;;;;;58.00;2.80;;;;;;;;;;5032296;28;20487;-68
2023/07/09 04:37:36;;;;;;;57.90;3.07;;;;;;;;;;5031258;28;20480;-68
2023/07/09 04:40:06;;;;;;;56.63;2.37;;;;;;;;;;5032270;28;20771;-68
2023/07/09 04:42:34;;;;;;;56.90;2.30;;;;;;;;;;5032278;28;20449;-68
2023/07/09 04:45:01;;;;;;;57.10;2.30;;;;;;;;;;5031754;28;20952;-68
2023/07/09 04:47:28;;;;;;;56.97;1.97;;;;;;;;;;5031835;28;20491;-68
2023/07/09 04:49:56;;;;;;;57.50;2.93;;;;;;;;;;5031925;28;20445;-68
2023/07/09 04:52:23;;;;;;;57.00;2.37;;;;;;;;;;5032079;28;20460;-68
2023/07/09 04:54:50;;;;;;;58.00;3.00;;;;;;;;;;5032231;28;20445;-68
2023/07/09 04:57:17;;;;;;;57.00;2.30;;;;;;;;;;5031532;28;20496;-68
2023/07/09 04:59:44;;;;;;;56.80;2.20;;;;;;;;;;5031920;28;20445;-68
2023/07/09 05:02:12;;;;;;;56.83;2.10;;;;;;;;;;5031789;28;20441;-68
2023/07/09 05:04:39;;;;;;;56.87;2.30;;;;;;;;;;5031567;28;20446;-68
2023/07/09 05:07:08;;;;;;;57.07;2.70;;;;;;;;;;5031720;28;20470;-68
2023/07/09 05:09:35;;;;;;;56.77;2.30;;;;;;;;;;5031509;28;20457;-68
2023/07/09 05:12:02;;;;;;;56.43;2.10;;;;;;;;;;5031752;28;20449;-68
2023/07/09 05:14:29;;;;;;;56.90;2.40;;;;;;;;;;5031262;28;20445;-68
2023/07/09 05:16:56;;;;;;;56.47;2.20;;;;;;;;;;5031288;28;20495;-68
2023/07/09 05:19:23;;;;;;;56.53;2.10;;;;;;;;;;5031503;28;20449;-68
2023/07/09 05:21:50;;;;;;;56.83;2.47;;;;;;;;;;5031807;28;20441;-68
2023/07/09 05:24:19;;;;;;;56.87;2.37;;;;;;;;;;5031467;28;20441;-68
2023/07/09 05:26:46;;;;;;;57.13;2.63;;;;;;;;;;5031018;28;20494;-68
2023/07/09 05:29:13;;;;;;;56.53;2.00;;;;;;;;;;5031371;28;20449;-68
2023/07/09 05:31:41;;;;;;;57.20;2.60;;;;;;;;;;5031468;28;20459;-68
2023/07/09 05:34:08;;;;;;;56.87;2.40;;;;;;;;;;5031402;28;20452;-68
2023/07/09 05:36:36;;;;;;;57.07;3.00;;;;;;;;;;5031007;28;20489;-68
2023/07/09 05:39:03;;;;;;;57.20;2.80;;;;;;;;;;5031483;28;20453;-68
2023/07/09 05:41:31;;;;;;;57.03;2.70;;;;;;;;;;5028636;28;20472;-68
2023/07/09 05:43:58;;;;;;;57.57;2.73;;;;;;;;;;5030964;28;20449;-68
2023/07/09 05:46:25;;;;;;;56.47;2.00;;;;;;;;;;5030709;28;20449;-68
2023/07/09 05:48:52;;;;;;;56.77;2.97;;;;;;;;;;5030861;28;20445;-68
2023/07/09 05:51:21;;;;;;;56.17;2.40;;;;;;;;;;5031288;28;20456;-68
2023/07/09 05:53:48;;;;;;;56.93;2.30;;;;;;;;;;5031217;28;20500;-68
2023/07/09 05:56:15;;;;;;;56.80;2.17;;;;;;;;;;5030504;28;20488;-68
2023/07/09 05:58:43;;;;;;;57.03;2.80;;;;;;;;;;5030819;28;20449;-68
2023/07/09 06:01:10;;;;;;;56.70;2.40;;;;;;;;;;5030911;28;20961;-68
2023/07/09 06:03:38;;;;;;;57.20;2.60;;;;;;;;;;5031208;28;20511;-68
2023/07/09 06:06:06;;;;;;;57.10;2.30;;;;;;;;;;5030849;28;20880;-68
2023/07/09 06:08:33;;;;;;;56.83;2.60;;;;;;;;;;5031122;28;20495;-68
2023/07/09 06:11:00;;;;;;;56.77;2.10;;;;;;;;;;5030901;28;20460;-68
2023/07/09 06:13:30;;;;;;;56.53;2.40;;;;;;;;;;5030842;28;20449;-68
2023/07/09 06:15:59;;;;;;;56.77;2.10;;;;;;;;;;5030649;28;20520;-68
2023/07/09 06:18:29;;;;;;;57.20;2.30;;;;;;;;;;5030883;28;21024;-68
2023/07/09 06:20:57;;;;;;;59.43;2.80;;;;;;;;;;5031103;28;20457;-68
2023/07/09 06:23:24;;;;;;;56.47;2.30;;;;;;;;;;5030849;28;20484;-68
2023/07/09 06:25:51;;;;;;;57.10;2.70;;;;;;;;;;5030397;28;20942;-68
2023/07/09 06:28:18;;;;;;;57.00;2.27;;;;;;;;;;5030807;28;20465;-68
2023/07/09 06:30:46;;;;;;;56.57;2.20;;;;;;;;;;5031003;28;20815;-68
2023/07/09 06:33:15;;;;;;;56.80;2.10;;;;;;;;;;5030556;28;20460;-68
2023/07/09 06:35:48;;;;;;;56.53;2.23;;;;;;;;;;5030464;28;20453;-68
2023/07/09 06:38:15;;;;;;;57.37;2.83;;;;;;;;;;5030545;28;20469;-68
2023/07/09 06:40:42;;;;;;;56.57;2.20;;;;;;;;;;5031130;28;20445;-68
2023/07/09 06:43:09;;;;;;;57.30;2.67;;;;;;;;;;5030819;28;20503;-68
2023/07/09 06:45:36;;;;;;;57.63;3.70;;;;;;;;;;5030492;28;20456;-68
2023/07/09 06:48:03;;;;;;;56.27;2.20;;;;;;;;;;5030653;28;21020;-68
2023/07/09 06:50:33;;;;;;;57.73;2.23;;;;;;;;;;5030545;28;20445;-68
2023/07/09 06:53:01;;;;;;;56.87;2.17;;;;;;;;;;5030836;28;20445;-68
2023/07/09 06:55:28;;;;;;;56.47;1.90;;;;;;;;;;5030528;28;20456;-68
2023/07/09 06:57:55;;;;;;;56.40;2.00;;;;;;;;;;5030475;28;20489;-68
2023/07/09 07:00:22;;;;;;;56.87;2.70;;;;;;;;;;5030885;28;20455;-68
2023/07/09 07:02:49;;;;;;;56.57;2.23;;;;;;;;;;5034249;28;20449;-68
2023/07/09 07:05:17;;;;;;;56.90;2.10;;;;;;;;;;5033718;28;21016;-68
2023/07/09 07:07:46;;;;;;;56.40;2.00;;;;;;;;;;5033673;28;20836;-68
2023/07/09 07:10:13;;;;;;;56.90;2.33;;;;;;;;;;5034092;28;20453;-68
2023/07/09 07:12:44;;;;;;;56.57;2.13;;;;;;;;;;5033914;28;20449;-68
2023/07/09 07:15:13;;;;;;;57.60;2.20;;;;;;;;;;5033744;28;20453;-68
2023/07/09 07:17:40;;;;;;;57.23;2.43;;;;;;;;;;5033614;28;20488;-68
2023/07/09 07:20:07;;;;;;;56.30;1.97;;;;;;;;;;5033547;28;20448;-68
2023/07/09 07:22:34;;;;;;;56.67;2.43;;;;;;;;;;5033607;28;20957;-68
2023/07/09 07:25:03;;;;;;;57.10;2.70;;;;;;;;;;5030817;28;21189;-68
2023/07/09 07:27:30;;;;;;;56.13;1.87;;;;;;;;;;5033245;28;20466;-69
2023/07/09 07:29:57;;;;;;;59.17;2.87;;;;;;;;;;5033341;28;20453;-68
2023/07/09 07:32:24;;;;;;;56.90;2.37;;;;;;;;;;5033400;28;20449;-69
2023/07/09 07:34:54;;;;;;;56.50;2.33;;;;;;;;;;5033368;28;20468;-68
2023/07/09 07:37:21;;;;;;;56.90;2.50;;;;;;;;;;5032244;28;21161;-69
2023/07/09 07:39:48;;;;;;;56.67;2.10;;;;;;;;;;5032135;28;20512;-69
2023/07/09 07:42:17;;;;;;;57.67;4.07;;;;;;;;;;5033321;28;20456;-69
2023/07/09 07:44:44;;;;;;;56.50;2.10;;;;;;;;;;5033259;28;20457;-70
2023/07/09 07:47:12;;;;;;;56.40;2.17;;;;;;;;;;5032666;28;20483;-70
2023/07/09 07:49:39;;;;;;;56.17;2.00;;;;;;;;;;5033290;28;20449;-70
2023/07/09 07:52:07;;;;;;;57.10;2.13;;;;;;;;;;5033085;28;20449;-70
2023/07/09 07:54:34;;;;;;;56.67;2.23;;;;;;;;;;5033078;28;20453;-70
2023/07/09 07:57:01;;;;;;;56.57;2.00;;;;;;;;;;5032526;28;20495;-69
2023/07/09 07:59:30;;;;;;;57.07;2.20;;;;;;;;;;5032939;28;20484;-70
2023/07/09 08:01:57;;;;;;;56.90;2.77;;;;;;;;;;5032834;28;20481;-70
2023/07/09 08:04:24;;;;;;;56.40;1.90;;;;;;;;;;5033444;28;20445;-70
2023/07/09 08:06:51;;;;;;;56.67;2.07;;;;;;;;;;5032547;28;20464;-70
2023/07/09 08:09:19;;;;;;;56.60;2.10;;;;;;;;;;5032711;28;20465;-70
2023/07/09 08:11:46;;;;;;;56.40;1.90;;;;;;;;;;5032054;28;20445;-70
2023/07/09 08:14:13;;;;;;;57.00;1.90;;;;;;;;;;5032112;28;20884;-69
2023/07/09 08:16:42;;;;;;;56.40;2.10;;;;;;;;;;5032314;28;20485;-70
2023/07/09 08:19:09;;;;;;;56.47;2.20;;;;;;;;;;5032720;28;20463;-69
2023/07/09 08:21:36;;;;;;;56.10;1.90;;;;;;;;;;5032648;28;20445;-70
2023/07/09 08:24:03;;;;;;;56.70;2.23;;;;;;;;;;5032962;28;20453;-70
2023/07/09 08:26:31;;;;;;;57.10;2.17;;;;;;;;;;5029221;28;20472;-69
2023/07/09 08:28:58;;;;;;;56.57;2.10;;;;;;;;;;5025050;28;20902;-67
2023/07/09 08:31:25;;;;;;;56.40;2.53;;;;;;;;;;5032287;28;20445;-67
2023/07/09 08:33:54;;;;;;;56.20;2.20;;;;;;;;;;5032537;28;20456;-67
2023/07/09 08:36:21;;;;;;;56.60;2.10;;;;;;;;;;5031593;28;20972;-67
2023/07/09 08:38:48;;;;;;;56.47;2.00;;;;;;;;;;5032195;28;20456;-67
2023/07/09 08:41:21;;;;;;;57.23;3.97;;;;;;;;;;5032041;28;20449;-67
2023/07/09 08:43:55;;;;;;;56.37;2.07;;;;;;;;;;5032301;28;20453;-67
2023/07/09 08:46:28;;;;;;;57.10;2.53;;;;;;;;;;5031837;28;20450;-67
2023/07/09 08:48:58;;;;;;;56.17;2.00;;;;;;;;;;5032122;28;20449;-67
2023/07/09 08:51:29;;;;;;;56.40;1.90;;;;;;;;;;5031848;28;20460;-67
2023/07/09 08:53:58;;;;;;;57.00;2.00;;;;;;;;;;5032049;28;20447;-67
2023/07/09 08:56:26;;;;;;;57.53;2.77;;;;;;;;;;5031592;28;20449;-67
2023/07/09 08:58:55;;;;;;;56.50;2.00;;;;;;;;;;5031832;28;20453;-67
2023/07/09 09:01:23;;;;;;;56.23;1.83;;;;;;;;;;5031934;28;20455;-68
2023/07/09 09:03:51;;;;;;;55.67;1.90;;;;;;;;;;5031743;28;20456;-67
2023/07/09 09:06:22;;;;;;;56.17;2.00;;;;;;;;;;5031229;28;20455;-67
2023/07/09 09:08:56;;;;;;;56.37;2.07;;;;;;;;;;5031682;28;20464;-68
2023/07/09 09:11:32;;;;;;;56.30;2.10;;;;;;;;;;5031748;28;20464;-68
2023/07/09 09:14:02;;;;;;;56.17;2.20;;;;;;;;;;5031640;28;20453;-68
2023/07/09 09:16:31;;;;;;;56.90;2.40;;;;;;;;;;5031039;28;20469;-67
2023/07/09 09:18:59;;;;;;;56.50;2.20;;;;;;;;;;5031499;28;20454;-68
2023/07/09 09:21:30;;;;;;;56.40;2.10;;;;;;;;;;5031813;28;20464;-68
2023/07/09 09:23:59;;;;;;;56.53;2.40;;;;;;;;;;5031176;28;20484;-68
2023/07/09 09:26:28;;;;;;;56.40;2.17;;;;;;;;;;5031161;28;20476;-68
2023/07/09 09:28:55;;;;;;;56.17;2.00;;;;;;;;;;5031309;28;20953;-68
2023/07/09 09:31:23;;;;;;;56.60;2.27;;;;;;;;;;5031253;28;20540;-67
2023/07/09 09:33:51;;;;;;;56.50;2.60;;;;;;;;;;5031585;28;20468;-68
2023/07/09 09:36:20;;;;;;;57.20;2.30;;;;;;;;;;5031033;28;20454;-68
2023/07/09 09:38:50;;;;;;;56.50;2.03;;;;;;;;;;5031242;28;20583;-68
2023/07/09 09:41:18;;;;;;;56.17;1.60;;;;;;;;;;5031308;28;20449;-68
2023/07/09 09:43:46;;;;;;;56.30;2.20;;;;;;;;;;5030999;28;20449;-69
2023/07/09 09:46:18;;;;;;;56.20;1.93;;;;;;;;;;5031005;28;20452;-69
2023/07/09 09:48:46;;;;;;;56.20;2.10;;;;;;;;;;5031335;28;20966;-68
2023/07/09 09:51:14;;;;;;;56.30;2.10;;;;;;;;;;5031205;28;20529;-68
2023/07/09 09:53:42;;;;;;;55.67;1.83;;;;;;;;;;5031261;28;20946;-68
2023/07/09 09:56:15;;;;;;;56.20;2.00;;;;;;;;;;5030551;28;20445;-69
2023/07/09 09:58:42;;;;;;;56.10;2.17;;;;;;;;;;5031225;28;20481;-68
2023/07/09 10:01:15;;;;;;;56.30;2.20;;;;;;;;;;5030957;28;20964;-68
2023/07/09 10:03:44;;;;;;;56.83;3.40;;;;;;;;;;5031101;28;20444;-68
2023/07/09 10:06:16;;;;;;;55.87;1.80;;;;;;;;;;5030518;28;20565;-68
2023/07/09 10:08:49;;;;;;;55.93;1.73;;;;;;;;;;5030861;28;20471;-68
2023/07/09 10:11:20;;;;;;;56.60;2.57;;;;;;;;;;5031213;28;20480;-68
2023/07/09 10:13:49;;;;;;;55.80;1.70;;;;;;;;;;5030935;28;20460;-68
2023/07/09 10:16:20;;;;;;;56.50;2.90;;;;;;;;;;5030501;28;20460;-68
2023/07/09 10:18:55;;;;;;;55.77;1.70;;;;;;;;;;5030694;28;21130;-68
2023/07/09 10:21:25;;;;;;;56.00;1.70;;;;;;;;;;5030675;28;20453;-68
2023/07/09 10:23:59;;;;;;;56.50;2.00;;;;;;;;;;5030723;28;20507;-69
2023/07/09 10:26:32;;;;;;;55.90;1.90;;;;;;;;;;5030438;28;20464;-68
2023/07/09 10:29:18;;;;;;;55.67;1.80;;;;;;;;;;5024771;28;20446;-68
2023/07/09 10:31:50;;;;;;;55.40;1.80;;;;;;;;;;5030444;28;20941;-68
2023/07/09 10:34:21;;;;;;;55.37;1.70;;;;;;;;;;5030455;28;20459;-69
2023/07/09 10:37:02;;;;;;;55.40;2.10;;;;;;;;;;5032889;28;20977;-69
2023/07/09 10:39:32;;;;;;;55.40;1.90;;;;;;;;;;5034441;28;21000;-69
2023/07/09 10:42:01;;;;;;;57.10;2.37;;;;;;;;;;5034122;28;20938;-69
2023/07/09 10:44:31;;;;;;;55.57;2.53;;;;;;;;;;5034403;28;20449;-69
2023/07/09 10:46:59;;;;;;;55.10;2.00;;;;;;;;;;5034075;28;20460;-69
2023/07/09 10:49:29;;;;;;;54.90;2.33;;;;;;;;;;5034035;28;20449;-69
2023/07/09 10:51:58;;;;;;;55.50;2.40;;;;;;;;;;5034197;28;20444;-69
2023/07/09 10:54:30;;;;;;;55.20;2.17;;;;;;;;;;5034191;28;20445;-69
2023/07/09 10:56:59;;;;;;;54.60;1.83;;;;;;;;;;5033606;28;20469;-69
2023/07/09 10:59:30;;;;;;;54.47;2.20;;;;;;;;;;5034215;28;20445;-67
2023/07/09 11:01:59;;;;;;;55.00;1.80;;;;;;;;;;5034190;28;20444;-67
2023/07/09 11:04:30;;;;;;;55.80;1.80;;;;;;;;;;5034178;28;20507;-68
2023/07/09 11:07:00;;;;;;;54.60;1.80;;;;;;;;;;5033545;28;20477;-68
2023/07/09 11:09:29;;;;;;;55.17;1.93;;;;;;;;;;5033692;28;20540;-68
2023/07/09 11:11:57;;;;;;;55.27;2.63;;;;;;;;;;5034021;28;20484;-68
2023/07/09 11:14:27;;;;;;;54.83;2.00;;;;;;;;;;5033722;28;20449;-68
2023/07/09 11:16:57;;;;;;;54.57;1.67;;;;;;;;;;5033758;28;20469;-68
2023/07/09 11:19:24;;;;;;;56.90;3.30;;;;;;;;;;5033889;28;20488;-68
2023/07/09 11:22:04;;;;;;;54.37;1.80;;;;;;;;;;5034014;28;20503;-68
2023/07/09 11:24:35;;;;;;;54.27;1.77;;;;;;;;;;5034010;28;20449;-68
2023/07/09 11:27:02;;;;;;;54.20;2.00;;;;;;;;;;5033431;28;20469;-67
2023/07/09 11:29:30;;;;;;;54.47;1.57;;;;;;;;;;5033567;28;20445;-67
2023/07/09 11:32:08;;;;;;;55.00;1.90;;;;;;;;;;5033449;28;20914;-68
2023/07/09 11:34:35;;;;;;;54.97;2.00;;;;;;;;;;5033619;28;20445;-68
2023/07/09 11:37:03;;;;;;;54.70;2.20;;;;;;;;;;5033008;28;20469;-68
2023/07/09 11:39:32;;;;;;;55.17;1.70;;;;;;;;;;5033366;28;20489;-67
2023/07/09 11:41:59;;;;;;;55.43;1.93;;;;;;;;;;5033278;28;20453;-68
2023/07/09 11:44:29;;;;;;;55.47;2.40;;;;;;;;;;5033172;28;20445;-67
2023/07/09 11:47:01;;;;;;;54.27;1.80;;;;;;;;;;5032798;28;20511;-68
2023/07/09 11:49:32;;;;;;;54.67;1.97;;;;;;;;;;5033253;28;20880;-68
2023/07/09 11:52:02;;;;;;;53.97;2.37;;;;;;;;;;5033150;28;20445;-67
2023/07/09 11:54:29;;;;;;;54.40;2.00;;;;;;;;;;5033269;28;20457;-68
2023/07/09 11:56:57;;;;;;;54.10;2.00;;;;;;;;;;5032560;28;20476;-67
2023/07/09 11:59:24;;;;;;;54.37;2.03;;;;;;;;;;5032776;28;20515;-67
2023/07/09 12:01:54;;;;;;;57.10;2.77;;;;;;;;;;5033208;28;20453;-68
2023/07/09 12:04:23;;;;;;;54.90;2.20;;;;;;;;;;5033079;28;20507;-68
2023/07/09 12:06:50;;;;;;;54.37;2.60;;;;;;;;;;5032414;28;20469;-68
2023/07/09 12:09:18;;;;;;;54.60;1.90;;;;;;;;;;5032543;28;20457;-68
2023/07/09 12:11:46;;;;;;;54.50;2.53;;;;;;;;;;5032535;28;20445;-68
2023/07/09 12:14:14;;;;;;;54.37;2.03;;;;;;;;;;5032874;28;20454;-68
2023/07/09 12:16:42;;;;;;;53.90;1.80;;;;;;;;;;5032351;28;20468;-68
2023/07/09 12:19:09;;;;;;;54.17;2.03;;;;;;;;;;5032448;28;20850;-68
2023/07/09 12:21:39;;;;;;;54.60;2.33;;;;;;;;;;5032552;28;20426;-68
2023/07/09 12:24:17;;;;;;;54.50;2.20;;;;;;;;;;5032420;28;20445;-68
2023/07/09 12:26:44;;;;;;;54.30;2.00;;;;;;;;;;5032099;28;21012;-68
2023/07/09 12:29:12;;;;;;;54.50;2.00;;;;;;;;;;5028444;28;21007;-68
2023/07/09 12:31:39;;;;;;;54.03;2.30;;;;;;;;;;5032006;28;20453;-68
2023/07/09 12:34:06;;;;;;;54.50;2.00;;;;;;;;;;5031517;28;21037;-68
2023/07/09 12:36:34;;;;;;;55.27;2.60;;;;;;;;;;5031668;28;20996;-68
2023/07/09 12:39:03;;;;;;;54.57;2.10;;;;;;;;;;5032563;28;20453;-68
2023/07/09 12:41:31;;;;;;;54.60;2.70;;;;;;;;;;5032301;28;20495;-68
2023/07/09 12:43:58;;;;;;;55.87;2.60;;;;;;;;;;5032078;28;20820;-68
2023/07/09 12:46:27;;;;;;;54.67;2.73;;;;;;;;;;5031745;28;20457;-69
2023/07/09 12:48:56;;;;;;;54.10;2.00;;;;;;;;;;5031992;28;20821;-69
2023/07/09 12:51:24;;;;;;;54.67;2.33;;;;;;;;;;5031865;28;20445;-69
2023/07/09 12:54:02;;;;;;;54.33;2.30;;;;;;;;;;5031956;28;20801;-69
2023/07/09 12:56:29;;;;;;;54.87;2.50;;;;;;;;;;5031917;28;20465;-69
2023/07/09 12:58:58;;;;;;;54.57;2.70;;;;;;;;;;5031144;28;20456;-68
2023/07/09 13:01:26;;;;;;;53.93;2.10;;;;;;;;;;5031809;28;20464;-68
2023/07/09 13:03:55;;;;;;;57.00;5.10;;;;;;;;;;5031726;28;20453;-68
2023/07/09 13:06:28;;;;;;;54.40;2.10;;;;;;;;;;5031338;28;20445;-68
2023/07/09 13:08:57;;;;;;;54.37;2.60;;;;;;;;;;5031628;28;21207;-68
2023/07/09 13:11:26;;;;;;;55.03;2.40;;;;;;;;;;5031665;28;20499;-68
2023/07/09 13:13:57;;;;;;;54.60;2.43;;;;;;;;;;5031532;28;20452;-68
2023/07/09 13:16:24;;;;;;;53.87;1.77;;;;;;;;;;5030906;28;20452;-68
2023/07/09 13:18:51;;;;;;;53.80;2.17;;;;;;;;;;5031826;28;20445;-69
2023/07/09 13:21:19;;;;;;;55.10;2.67;;;;;;;;;;5031396;28;20449;-69
2023/07/09 13:23:46;;;;;;;56.23;2.80;;;;;;;;;;5031485;28;20456;-68
2023/07/09 13:26:13;;;;;;;54.80;2.30;;;;;;;;;;5030868;28;20468;-68
2023/07/09 13:28:42;;;;;;;54.70;1.70;;;;;;;;;;5031208;28;20481;-68
2023/07/09 13:31:11;;;;;;;54.60;2.10;;;;;;;;;;5031546;28;20546;-68
2023/07/09 13:33:38;;;;;;;54.07;2.23;;;;;;;;;;5031466;28;20817;-69
2023/07/09 13:36:06;;;;;;;54.50;2.10;;;;;;;;;;5030435;28;20463;-69
2023/07/09 13:38:34;;;;;;;53.90;2.20;;;;;;;;;;5031040;28;20465;-69
2023/07/09 13:41:02;;;;;;;53.87;2.10;;;;;;;;;;5031178;28;20917;-69
2023/07/09 13:43:30;;;;;;;54.30;2.30;;;;;;;;;;5031045;28;20465;-69
2023/07/09 13:45:59;;;;;;;54.40;1.90;;;;;;;;;;5031018;28;20860;-69
2023/07/09 13:48:27;;;;;;;53.87;1.80;;;;;;;;;;5031134;28;20955;-69
2023/07/09 13:50:55;;;;;;;54.20;1.80;;;;;;;;;;5031223;28;20441;-69
2023/07/09 13:53:23;;;;;;;53.97;2.03;;;;;;;;;;5031152;28;20460;-69
2023/07/09 13:55:50;;;;;;;54.50;1.90;;;;;;;;;;5030544;28;20819;-69
2023/07/09 13:58:19;;;;;;;53.93;2.00;;;;;;;;;;5031122;28;20577;-69
2023/07/09 14:00:47;;;;;;;53.63;1.90;;;;;;;;;;5031114;28;20445;-69
2023/07/09 14:03:19;;;;;;;54.77;2.10;;;;;;;;;;5031067;28;20453;-69
2023/07/09 14:05:46;;;;;;;54.47;1.80;;;;;;;;;;5030690;28;20457;-68
2023/07/09 14:08:13;;;;;;;54.73;2.73;;;;;;;;;;5030591;28;20480;-69
2023/07/09 14:10:41;;;;;;;53.97;2.10;;;;;;;;;;5033445;28;20929;-69
2023/07/09 14:13:10;;;;;;;54.20;2.30;;;;;;;;;;5035162;28;20426;-69
2023/07/09 14:15:37;;;;;;;55.27;2.50;;;;;;;;;;5034736;28;20821;-68
2023/07/09 14:18:04;;;;;;;53.93;1.80;;;;;;;;;;5034975;28;20477;-68
2023/07/09 14:20:33;;;;;;;54.40;2.03;;;;;;;;;;5034960;28;20452;-68
2023/07/09 14:23:00;;;;;;;54.57;1.90;;;;;;;;;;5034741;28;20445;-68
2023/07/09 14:25:28;;;;;;;54.87;2.10;;;;;;;;;;5034810;28;20453;-68
2023/07/09 14:27:55;;;;;;;54.60;1.80;;;;;;;;;;5034898;28;20475;-68
2023/07/09 14:30:24;;;;;;;54.27;2.20;;;;;;;;;;5034790;28;20489;-68
2023/07/09 14:32:52;;;;;;;55.90;1.80;;;;;;;;;;5034849;28;20793;-68
2023/07/09 14:35:20;;;;;;;54.67;2.00;;;;;;;;;;5034886;28;20483;-69
2023/07/09 14:37:50;;;;;;;54.70;1.70;;;;;;;;;;5034439;28;20929;-68